West Yellowstone, Montana
Current Conditions -  °F | °C
As of 2:56 AM on Sunday 23 Nov 2014 (Local Time) from KDIJ Reporting Station
Light Snow Light Snow  
Wind Chill: 25°   Ceiling: 4800
Heat Index: 25°   Visibility: 9mi
Dew Point: 24°   Wind: 0mph
Humidity: 96%   Direction: NA
Pressure: 29.87"   Gusts: NA
Location:  44.66°N, 111.1°W
Report Text: KDIJ 230956Z AUTO 00000KT 9SM -SN FEW035 OVC048 M04/M04 A2987 RMK AO2 T10381044 P0000 SLP109
Loading
Personal Weather Stations






























Interactive Weather Map New forecast layout! Learn more

10-Day Weather Forecast

Advertisements
Track Severe Weather on mobile